sensor_id;sensor_type;location;lat;lon;timestamp;P1;durP1;ratioP1;P2;durP2;ratioP2
12798;SDS011;19250;42.646;26.980;2023-05-10T00:00:45;17.90;;;16.08;;
12798;SDS011;19250;42.646;26.980;2023-05-10T00:03:12;16.17;;;14.50;;
12798;SDS011;19250;42.646;26.980;2023-05-10T00:05:40;16.15;;;13.63;;
12798;SDS011;19250;42.646;26.980;2023-05-10T00:08:07;17.95;;;14.20;;
12798;SDS011;19250;42.646;26.980;2023-05-10T00:10:35;20.50;;;15.25;;
12798;SDS011;19250;42.646;26.980;2023-05-10T00:15:31;19.10;;;15.30;;
12798;SDS011;19250;42.646;26.980;2023-05-10T00:32:42;19.55;;;14.68;;
12798;SDS011;19250;42.646;26.980;2023-05-10T00:35:09;19.93;;;14.60;;
12798;SDS011;19250;42.646;26.980;2023-05-10T00:37:37;14.60;;;12.95;;
12798;SDS011;19250;42.646;26.980;2023-05-10T00:40:05;13.65;;;11.50;;
12798;SDS011;19250;42.646;26.980;2023-05-10T00:42:33;16.95;;;11.75;;
12798;SDS011;19250;42.646;26.980;2023-05-10T00:45:00;18.30;;;14.50;;
12798;SDS011;19250;42.646;26.980;2023-05-10T00:47:28;18.27;;;14.60;;
12798;SDS011;19250;42.646;26.980;2023-05-10T00:49:57;17.80;;;14.05;;
12798;SDS011;19250;42.646;26.980;2023-05-10T00:52:25;17.50;;;14.70;;
12798;SDS011;19250;42.646;26.980;2023-05-10T00:54:53;17.20;;;14.00;;
12798;SDS011;19250;42.646;26.980;2023-05-10T00:57:21;17.45;;;13.30;;
12798;SDS011;19250;42.646;26.980;2023-05-10T00:59:48;18.35;;;16.40;;
12798;SDS011;19250;42.646;26.980;2023-05-10T01:02:16;22.40;;;16.60;;
12798;SDS011;19250;42.646;26.980;2023-05-10T01:04:44;20.30;;;17.70;;
12798;SDS011;19250;42.646;26.980;2023-05-10T01:07:12;23.55;;;17.75;;
12798;SDS011;19250;42.646;26.980;2023-05-10T01:09:41;24.45;;;17.83;;
12798;SDS011;19250;42.646;26.980;2023-05-10T01:12:08;22.17;;;17.38;;
12798;SDS011;19250;42.646;26.980;2023-05-10T01:14:35;22.30;;;17.90;;
12798;SDS011;19250;42.646;26.980;2023-05-10T01:17:03;22.70;;;18.45;;
12798;SDS011;19250;42.646;26.980;2023-05-10T01:19:32;19.30;;;16.50;;
12798;SDS011;19250;42.646;26.980;2023-05-10T01:22:04;20.30;;;16.00;;
12798;SDS011;19250;42.646;26.980;2023-05-10T01:31:01;17.65;;;14.35;;
12798;SDS011;19250;42.646;26.980;2023-05-10T01:33:37;15.50;;;13.00;;
12798;SDS011;19250;42.646;26.980;2023-05-10T01:36:12;15.07;;;13.05;;
12798;SDS011;19250;42.646;26.980;2023-05-10T01:38:53;16.00;;;12.30;;
12798;SDS011;19250;42.646;26.980;2023-05-10T01:41:28;13.30;;;11.40;;
12798;SDS011;19250;42.646;26.980;2023-05-10T01:44:09;14.70;;;11.80;;
12798;SDS011;19250;42.646;26.980;2023-05-10T01:46:43;17.65;;;13.15;;
12798;SDS011;19250;42.646;26.980;2023-05-10T01:49:21;16.10;;;14.25;;
12798;SDS011;19250;42.646;26.980;2023-05-10T01:51:53;17.10;;;14.90;;
12798;SDS011;19250;42.646;26.980;2023-05-10T01:54:25;16.70;;;14.95;;
12798;SDS011;19250;42.646;26.980;2023-05-10T01:56:56;19.70;;;17.60;;
12798;SDS011;19250;42.646;26.980;2023-05-10T01:59:29;17.60;;;15.80;;
12798;SDS011;19250;42.646;26.980;2023-05-10T02:02:01;17.75;;;15.65;;
12798;SDS011;19250;42.646;26.980;2023-05-10T02:04:33;19.40;;;14.70;;
12798;SDS011;19250;42.646;26.980;2023-05-10T02:14:28;16.40;;;13.90;;
12798;SDS011;19250;42.646;26.980;2023-05-10T02:16:57;20.70;;;14.60;;
12798;SDS011;19250;42.646;26.980;2023-05-10T02:29:18;17.50;;;15.00;;
12798;SDS011;19250;42.646;26.980;2023-05-10T02:31:46;16.70;;;14.40;;
12798;SDS011;19250;42.646;26.980;2023-05-10T02:34:13;13.30;;;11.90;;
12798;SDS011;19250;42.646;26.980;2023-05-10T02:36:41;14.33;;;12.03;;
12798;SDS011;19250;42.646;26.980;2023-05-10T02:39:10;13.73;;;12.32;;
12798;SDS011;19250;42.646;26.980;2023-05-10T02:41:39;14.48;;;12.50;;
12798;SDS011;19250;42.646;26.980;2023-05-10T02:44:07;14.03;;;12.53;;
12798;SDS011;19250;42.646;26.980;2023-05-10T02:46:36;15.33;;;13.70;;
12798;SDS011;19250;42.646;26.980;2023-05-10T02:49:03;17.58;;;14.50;;
12798;SDS011;19250;42.646;26.980;2023-05-10T02:51:31;15.90;;;12.83;;
12798;SDS011;19250;42.646;26.980;2023-05-10T02:54:01;14.93;;;13.13;;
12798;SDS011;19250;42.646;26.980;2023-05-10T02:56:35;18.27;;;13.68;;
12798;SDS011;19250;42.646;26.980;2023-05-10T02:59:07;16.50;;;13.40;;
12798;SDS011;19250;42.646;26.980;2023-05-10T03:01:34;21.02;;;15.70;;
12798;SDS011;19250;42.646;26.980;2023-05-10T03:04:02;17.63;;;14.82;;
12798;SDS011;19250;42.646;26.980;2023-05-10T03:06:30;15.32;;;13.27;;
12798;SDS011;19250;42.646;26.980;2023-05-10T03:08:58;13.27;;;11.88;;
12798;SDS011;19250;42.646;26.980;2023-05-10T03:11:32;14.75;;;11.57;;
12798;SDS011;19250;42.646;26.980;2023-05-10T03:14:13;13.35;;;12.02;;
12798;SDS011;19250;42.646;26.980;2023-05-10T03:16:55;15.00;;;12.00;;
12798;SDS011;19250;42.646;26.980;2023-05-10T03:19:27;15.18;;;12.95;;
12798;SDS011;19250;42.646;26.980;2023-05-10T03:21:59;14.60;;;13.10;;
12798;SDS011;19250;42.646;26.980;2023-05-10T03:24:30;14.05;;;12.75;;
12798;SDS011;19250;42.646;26.980;2023-05-10T03:27:03;13.95;;;12.55;;
12798;SDS011;19250;42.646;26.980;2023-05-10T03:29:31;16.17;;;13.57;;
12798;SDS011;19250;42.646;26.980;2023-05-10T03:31:59;15.73;;;13.77;;
12798;SDS011;19250;42.646;26.980;2023-05-10T03:34:26;16.77;;;14.80;;
12798;SDS011;19250;42.646;26.980;2023-05-10T03:36:56;26.63;;;23.08;;
12798;SDS011;19250;42.646;26.980;2023-05-10T03:39:23;21.80;;;18.70;;
12798;SDS011;19250;42.646;26.980;2023-05-10T03:41:51;24.73;;;18.40;;
12798;SDS011;19250;42.646;26.980;2023-05-10T03:44:19;24.27;;;20.37;;
12798;SDS011;19250;42.646;26.980;2023-05-10T03:47:04;24.63;;;20.33;;
12798;SDS011;19250;42.646;26.980;2023-05-10T03:49:31;22.70;;;17.80;;
12798;SDS011;19250;42.646;26.980;2023-05-10T03:51:58;22.93;;;18.57;;
12798;SDS011;19250;42.646;26.980;2023-05-10T03:54:26;22.70;;;18.08;;
12798;SDS011;19250;42.646;26.980;2023-05-10T03:56:53;20.90;;;18.35;;
12798;SDS011;19250;42.646;26.980;2023-05-10T03:59:22;22.13;;;17.52;;
12798;SDS011;19250;42.646;26.980;2023-05-10T04:01:49;22.90;;;17.60;;
12798;SDS011;19250;42.646;26.980;2023-05-10T04:04:16;19.20;;;16.93;;
12798;SDS011;19250;42.646;26.980;2023-05-10T04:06:45;20.27;;;14.50;;
12798;SDS011;19250;42.646;26.980;2023-05-10T04:09:13;17.65;;;14.43;;
12798;SDS011;19250;42.646;26.980;2023-05-10T04:11:40;16.77;;;14.80;;
12798;SDS011;19250;42.646;26.980;2023-05-10T04:14:07;14.80;;;13.20;;
12798;SDS011;19250;42.646;26.980;2023-05-10T04:16:36;17.98;;;14.48;;
12798;SDS011;19250;42.646;26.980;2023-05-10T04:19:03;15.88;;;13.32;;
12798;SDS011;19250;42.646;26.980;2023-05-10T04:21:31;16.63;;;14.82;;
12798;SDS011;19250;42.646;26.980;2023-05-10T04:23:58;16.27;;;13.70;;
12798;SDS011;19250;42.646;26.980;2023-05-10T04:26:25;18.55;;;16.48;;
12798;SDS011;19250;42.646;26.980;2023-05-10T04:28:52;18.85;;;16.45;;
12798;SDS011;19250;42.646;26.980;2023-05-10T04:31:20;20.38;;;18.05;;
12798;SDS011;19250;42.646;26.980;2023-05-10T04:33:48;22.50;;;20.10;;
12798;SDS011;19250;42.646;26.980;2023-05-10T04:36:16;20.88;;;18.60;;
12798;SDS011;19250;42.646;26.980;2023-05-10T04:38:43;17.90;;;16.00;;
12798;SDS011;19250;42.646;26.980;2023-05-10T04:41:10;16.23;;;14.53;;
12798;SDS011;19250;42.646;26.980;2023-05-10T04:43:38;14.45;;;10.23;;
12798;SDS011;19250;42.646;26.980;2023-05-10T04:46:05;10.40;;;9.40;;
12798;SDS011;19250;42.646;26.980;2023-05-10T04:48:33;11.10;;;8.90;;
12798;SDS011;19250;42.646;26.980;2023-05-10T04:51:01;10.10;;;8.70;;
12798;SDS011;19250;42.646;26.980;2023-05-10T04:53:30;9.90;;;8.90;;
12798;SDS011;19250;42.646;26.980;2023-05-10T04:55:57;14.40;;;8.60;;
12798;SDS011;19250;42.646;26.980;2023-05-10T04:58:24;11.97;;;9.80;;
12798;SDS011;19250;42.646;26.980;2023-05-10T05:00:51;10.77;;;9.38;;
12798;SDS011;19250;42.646;26.980;2023-05-10T05:03:19;10.30;;;8.60;;
12798;SDS011;19250;42.646;26.980;2023-05-10T05:05:47;9.10;;;7.65;;
12798;SDS011;19250;42.646;26.980;2023-05-10T05:10:43;13.00;;;7.70;;
12798;SDS011;19250;42.646;26.980;2023-05-10T05:15:39;8.70;;;7.80;;
12798;SDS011;19250;42.646;26.980;2023-05-10T05:18:06;8.40;;;7.50;;
12798;SDS011;19250;42.646;26.980;2023-05-10T05:23:00;8.30;;;7.20;;
12798;SDS011;19250;42.646;26.980;2023-05-10T06:34:15;4.60;;;3.05;;
12798;SDS011;19250;42.646;26.980;2023-05-10T06:56:19;5.70;;;5.20;;
12798;SDS011;19250;42.646;26.980;2023-05-10T07:30:41;8.00;;;6.90;;
12798;SDS011;19250;42.646;26.980;2023-05-10T07:40:31;6.20;;;3.70;;
12798;SDS011;19250;42.646;26.980;2023-05-10T07:43:00;6.20;;;3.50;;
12798;SDS011;19250;42.646;26.980;2023-05-10T08:36:59;4.60;;;3.50;;
12798;SDS011;19250;42.646;26.980;2023-05-10T09:06:33;7.00;;;4.70;;
12798;SDS011;19250;42.646;26.980;2023-05-10T09:26:16;4.65;;;3.65;;
12798;SDS011;19250;42.646;26.980;2023-05-10T09:28:51;4.50;;;4.10;;
12798;SDS011;19250;42.646;26.980;2023-05-10T09:31:19;3.90;;;3.10;;
12798;SDS011;19250;42.646;26.980;2023-05-10T09:33:46;5.00;;;4.50;;
12798;SDS011;19250;42.646;26.980;2023-05-10T09:38:45;4.70;;;4.25;;
12798;SDS011;19250;42.646;26.980;2023-05-10T09:41:18;5.40;;;4.10;;
12798;SDS011;19250;42.646;26.980;2023-05-10T09:43:46;6.35;;;4.18;;
12798;SDS011;19250;42.646;26.980;2023-05-10T09:46:14;4.20;;;3.50;;
12798;SDS011;19250;42.646;26.980;2023-05-10T09:48:42;3.77;;;3.43;;
12798;SDS011;19250;42.646;26.980;2023-05-10T09:51:18;4.65;;;4.25;;
12798;SDS011;19250;42.646;26.980;2023-05-10T09:59:03;4.05;;;3.60;;
12798;SDS011;19250;42.646;26.980;2023-05-10T10:01:31;3.70;;;3.30;;
12798;SDS011;19250;42.646;26.980;2023-05-10T10:04:00;3.92;;;3.20;;
12798;SDS011;19250;42.646;26.980;2023-05-10T10:06:34;4.68;;;3.08;;
12798;SDS011;19250;42.646;26.980;2023-05-10T10:09:03;4.43;;;3.58;;
12798;SDS011;19250;42.646;26.980;2023-05-10T10:11:31;4.20;;;3.20;;
12798;SDS011;19250;42.646;26.980;2023-05-10T10:14:00;3.55;;;3.25;;
12798;SDS011;19250;42.646;26.980;2023-05-10T10:16:28;3.97;;;3.40;;
12798;SDS011;19250;42.646;26.980;2023-05-10T10:18:56;5.30;;;4.90;;
12798;SDS011;19250;42.646;26.980;2023-05-10T10:21:24;4.18;;;3.75;;
12798;SDS011;19250;42.646;26.980;2023-05-10T10:23:52;9.63;;;4.93;;
12798;SDS011;19250;42.646;26.980;2023-05-10T10:26:19;9.65;;;7.00;;
12798;SDS011;19250;42.646;26.980;2023-05-10T10:28:49;4.47;;;3.75;;
12798;SDS011;19250;42.646;26.980;2023-05-10T10:31:26;5.47;;;4.00;;
12798;SDS011;19250;42.646;26.980;2023-05-10T10:33:59;8.82;;;4.70;;
12798;SDS011;19250;42.646;26.980;2023-05-10T10:36:30;6.95;;;3.35;;
12798;SDS011;19250;42.646;26.980;2023-05-10T10:38:59;8.05;;;4.15;;
12798;SDS011;19250;42.646;26.980;2023-05-10T10:41:31;5.05;;;4.13;;
12798;SDS011;19250;42.646;26.980;2023-05-10T10:47:23;5.10;;;4.57;;
12798;SDS011;19250;42.646;26.980;2023-05-10T10:50:02;4.13;;;3.72;;
12798;SDS011;19250;42.646;26.980;2023-05-10T10:52:31;3.42;;;3.10;;
12798;SDS011;19250;42.646;26.980;2023-05-10T10:55:00;4.50;;;3.40;;
12798;SDS011;19250;42.646;26.980;2023-05-10T10:57:31;7.20;;;4.90;;
12798;SDS011;19250;42.646;26.980;2023-05-10T11:00:18;5.85;;;3.95;;
12798;SDS011;19250;42.646;26.980;2023-05-10T11:02:51;4.50;;;3.60;;
12798;SDS011;19250;42.646;26.980;2023-05-10T11:05:23;5.22;;;3.00;;
12798;SDS011;19250;42.646;26.980;2023-05-10T11:08:06;5.32;;;2.78;;
12798;SDS011;19250;42.646;26.980;2023-05-10T11:10:36;4.97;;;2.93;;
12798;SDS011;19250;42.646;26.980;2023-05-10T11:13:04;6.32;;;3.85;;
12798;SDS011;19250;42.646;26.980;2023-05-10T11:15:33;4.78;;;4.28;;
12798;SDS011;19250;42.646;26.980;2023-05-10T11:18:18;6.60;;;3.50;;
12798;SDS011;19250;42.646;26.980;2023-05-10T11:20:49;4.30;;;3.90;;
12798;SDS011;19250;42.646;26.980;2023-05-10T11:23:17;6.28;;;4.57;;
12798;SDS011;19250;42.646;26.980;2023-05-10T11:25:46;5.25;;;3.95;;
12798;SDS011;19250;42.646;26.980;2023-05-10T11:28:16;3.63;;;3.13;;
12798;SDS011;19250;42.646;26.980;2023-05-10T11:30:44;4.65;;;3.75;;
12798;SDS011;19250;42.646;26.980;2023-05-10T11:33:15;7.07;;;4.30;;
12798;SDS011;19250;42.646;26.980;2023-05-10T11:35:44;6.55;;;3.50;;
12798;SDS011;19250;42.646;26.980;2023-05-10T11:38:12;4.80;;;3.50;;
12798;SDS011;19250;42.646;26.980;2023-05-10T11:40:40;7.17;;;4.70;;
12798;SDS011;19250;42.646;26.980;2023-05-10T11:43:08;6.38;;;4.22;;
12798;SDS011;19250;42.646;26.980;2023-05-10T11:45:37;4.43;;;2.80;;
12798;SDS011;19250;42.646;26.980;2023-05-10T11:48:04;4.00;;;3.15;;
12798;SDS011;19250;42.646;26.980;2023-05-10T11:50:33;5.95;;;3.67;;
12798;SDS011;19250;42.646;26.980;2023-05-10T11:53:00;5.25;;;3.72;;
12798;SDS011;19250;42.646;26.980;2023-05-10T11:55:28;4.13;;;3.72;;
12798;SDS011;19250;42.646;26.980;2023-05-10T11:57:59;4.75;;;3.70;;
12798;SDS011;19250;42.646;26.980;2023-05-10T12:00:29;5.97;;;4.27;;
12798;SDS011;19250;42.646;26.980;2023-05-10T12:02:56;5.87;;;4.40;;
12798;SDS011;19250;42.646;26.980;2023-05-10T12:05:24;6.20;;;4.20;;
12798;SDS011;19250;42.646;26.980;2023-05-10T12:07:53;8.10;;;4.07;;
12798;SDS011;19250;42.646;26.980;2023-05-10T12:10:37;6.70;;;3.50;;
12798;SDS011;19250;42.646;26.980;2023-05-10T12:13:05;5.45;;;3.47;;
12798;SDS011;19250;42.646;26.980;2023-05-10T12:15:34;4.73;;;3.47;;
12798;SDS011;19250;42.646;26.980;2023-05-10T12:18:01;5.88;;;3.58;;
12798;SDS011;19250;42.646;26.980;2023-05-10T12:20:29;3.60;;;2.70;;
12798;SDS011;19250;42.646;26.980;2023-05-10T12:22:58;3.95;;;3.20;;
12798;SDS011;19250;42.646;26.980;2023-05-10T12:25:29;6.95;;;3.40;;
12798;SDS011;19250;42.646;26.980;2023-05-10T12:27:58;4.70;;;4.07;;
12798;SDS011;19250;42.646;26.980;2023-05-10T12:30:27;4.50;;;4.00;;
12798;SDS011;19250;42.646;26.980;2023-05-10T12:32:59;5.35;;;4.00;;
12798;SDS011;19250;42.646;26.980;2023-05-10T12:35:29;4.78;;;3.90;;
12798;SDS011;19250;42.646;26.980;2023-05-10T12:37:58;4.15;;;3.30;;
12798;SDS011;19250;42.646;26.980;2023-05-10T12:40:25;3.85;;;3.35;;
12798;SDS011;19250;42.646;26.980;2023-05-10T12:42:53;5.20;;;3.40;;
12798;SDS011;19250;42.646;26.980;2023-05-10T12:45:20;5.03;;;3.80;;
12798;SDS011;19250;42.646;26.980;2023-05-10T12:47:48;4.07;;;3.00;;
12798;SDS011;19250;42.646;26.980;2023-05-10T12:50:15;2.80;;;2.60;;
12798;SDS011;19250;42.646;26.980;2023-05-10T12:52:42;11.75;;;8.52;;
12798;SDS011;19250;42.646;26.980;2023-05-10T12:55:11;4.97;;;3.10;;
12798;SDS011;19250;42.646;26.980;2023-05-10T12:57:38;4.47;;;3.47;;
12798;SDS011;19250;42.646;26.980;2023-05-10T13:00:06;4.68;;;3.35;;
12798;SDS011;19250;42.646;26.980;2023-05-10T13:02:34;3.38;;;3.08;;
12798;SDS011;19250;42.646;26.980;2023-05-10T13:05:01;3.78;;;3.25;;
12798;SDS011;19250;42.646;26.980;2023-05-10T13:07:28;5.15;;;3.85;;
12798;SDS011;19250;42.646;26.980;2023-05-10T13:09:55;4.47;;;3.05;;
12798;SDS011;19250;42.646;26.980;2023-05-10T13:12:24;3.60;;;3.30;;
12798;SDS011;19250;42.646;26.980;2023-05-10T13:14:51;4.95;;;3.38;;
12798;SDS011;19250;42.646;26.980;2023-05-10T13:17:18;5.05;;;3.55;;
12798;SDS011;19250;42.646;26.980;2023-05-10T13:19:46;6.38;;;3.35;;
12798;SDS011;19250;42.646;26.980;2023-05-10T13:22:13;4.32;;;3.50;;
12798;SDS011;19250;42.646;26.980;2023-05-10T13:24:40;4.88;;;3.55;;
12798;SDS011;19250;42.646;26.980;2023-05-10T13:27:07;4.80;;;3.42;;
12798;SDS011;19250;42.646;26.980;2023-05-10T13:29:36;3.50;;;2.92;;
12798;SDS011;19250;42.646;26.980;2023-05-10T13:32:03;5.10;;;3.27;;
12798;SDS011;19250;42.646;26.980;2023-05-10T13:34:31;3.78;;;3.25;;
12798;SDS011;19250;42.646;26.980;2023-05-10T13:36:58;4.20;;;3.53;;
12798;SDS011;19250;42.646;26.980;2023-05-10T13:39:25;4.20;;;3.77;;
12798;SDS011;19250;42.646;26.980;2023-05-10T13:41:54;3.93;;;3.50;;
12798;SDS011;19250;42.646;26.980;2023-05-10T13:44:22;5.37;;;3.47;;
12798;SDS011;19250;42.646;26.980;2023-05-10T13:46:50;4.05;;;3.25;;
12798;SDS011;19250;42.646;26.980;2023-05-10T13:49:18;4.35;;;3.53;;
12798;SDS011;19250;42.646;26.980;2023-05-10T13:51:45;5.45;;;4.00;;
12798;SDS011;19250;42.646;26.980;2023-05-10T13:54:12;4.77;;;3.77;;
12798;SDS011;19250;42.646;26.980;2023-05-10T13:56:39;4.82;;;3.03;;
12798;SDS011;19250;42.646;26.980;2023-05-10T13:59:09;5.15;;;3.50;;
12798;SDS011;19250;42.646;26.980;2023-05-10T14:01:36;4.55;;;3.60;;
12798;SDS011;19250;42.646;26.980;2023-05-10T14:04:05;5.05;;;3.42;;
12798;SDS011;19250;42.646;26.980;2023-05-10T14:06:35;4.25;;;3.85;;
12798;SDS011;19250;42.646;26.980;2023-05-10T14:09:02;6.13;;;3.42;;
12798;SDS011;19250;42.646;26.980;2023-05-10T14:11:30;4.22;;;3.65;;
12798;SDS011;19250;42.646;26.980;2023-05-10T14:13:57;6.28;;;4.10;;
12798;SDS011;19250;42.646;26.980;2023-05-10T14:16:24;6.13;;;4.00;;
12798;SDS011;19250;42.646;26.980;2023-05-10T14:18:52;5.03;;;3.57;;
12798;SDS011;19250;42.646;26.980;2023-05-10T14:21:21;4.80;;;3.60;;
12798;SDS011;19250;42.646;26.980;2023-05-10T14:23:48;6.03;;;4.20;;
12798;SDS011;19250;42.646;26.980;2023-05-10T14:26:15;5.97;;;3.95;;
12798;SDS011;19250;42.646;26.980;2023-05-10T14:28:42;7.27;;;5.43;;
12798;SDS011;19250;42.646;26.980;2023-05-10T14:31:10;6.05;;;4.30;;
12798;SDS011;19250;42.646;26.980;2023-05-10T14:33:37;5.30;;;3.70;;
12798;SDS011;19250;42.646;26.980;2023-05-10T14:36:05;4.53;;;3.93;;
12798;SDS011;19250;42.646;26.980;2023-05-10T14:38:35;5.88;;;3.97;;
12798;SDS011;19250;42.646;26.980;2023-05-10T14:41:02;6.30;;;4.45;;
12798;SDS011;19250;42.646;26.980;2023-05-10T14:43:29;7.80;;;4.15;;
12798;SDS011;19250;42.646;26.980;2023-05-10T14:45:57;6.20;;;3.85;;
12798;SDS011;19250;42.646;26.980;2023-05-10T14:48:24;5.05;;;4.60;;
12798;SDS011;19250;42.646;26.980;2023-05-10T14:50:51;4.25;;;3.65;;
12798;SDS011;19250;42.646;26.980;2023-05-10T14:53:35;3.88;;;3.50;;
12798;SDS011;19250;42.646;26.980;2023-05-10T14:56:03;5.60;;;4.20;;
12798;SDS011;19250;42.646;26.980;2023-05-10T14:58:30;5.22;;;4.32;;
12798;SDS011;19250;42.646;26.980;2023-05-10T15:00:57;5.73;;;4.10;;
12798;SDS011;19250;42.646;26.980;2023-05-10T15:03:25;5.78;;;4.50;;
12798;SDS011;19250;42.646;26.980;2023-05-10T15:05:52;5.07;;;4.05;;
12798;SDS011;19250;42.646;26.980;2023-05-10T15:08:21;5.72;;;4.32;;
12798;SDS011;19250;42.646;26.980;2023-05-10T15:10:50;5.63;;;3.97;;
12798;SDS011;19250;42.646;26.980;2023-05-10T15:13:17;5.88;;;3.80;;
12798;SDS011;19250;42.646;26.980;2023-05-10T15:15:45;4.23;;;3.33;;
12798;SDS011;19250;42.646;26.980;2023-05-10T15:18:12;5.13;;;3.78;;
12798;SDS011;19250;42.646;26.980;2023-05-10T15:20:39;6.10;;;4.32;;
12798;SDS011;19250;42.646;26.980;2023-05-10T15:23:06;4.85;;;3.63;;
12798;SDS011;19250;42.646;26.980;2023-05-10T15:25:34;5.80;;;4.20;;
12798;SDS011;19250;42.646;26.980;2023-05-10T15:28:04;5.45;;;3.65;;
12798;SDS011;19250;42.646;26.980;2023-05-10T15:30:31;4.50;;;3.40;;
12798;SDS011;19250;42.646;26.980;2023-05-10T15:32:58;6.13;;;3.72;;
12798;SDS011;19250;42.646;26.980;2023-05-10T15:35:26;5.15;;;3.88;;
12798;SDS011;19250;42.646;26.980;2023-05-10T15:37:53;6.72;;;3.92;;
12798;SDS011;19250;42.646;26.980;2023-05-10T15:40:20;6.22;;;3.90;;
12798;SDS011;19250;42.646;26.980;2023-05-10T15:42:48;4.10;;;3.70;;
12798;SDS011;19250;42.646;26.980;2023-05-10T15:45:16;4.43;;;3.75;;
12798;SDS011;19250;42.646;26.980;2023-05-10T15:47:44;4.38;;;3.13;;
12798;SDS011;19250;42.646;26.980;2023-05-10T15:50:11;6.55;;;3.88;;
12798;SDS011;19250;42.646;26.980;2023-05-10T15:52:39;6.95;;;4.43;;
12798;SDS011;19250;42.646;26.980;2023-05-10T15:55:07;5.68;;;3.42;;
12798;SDS011;19250;42.646;26.980;2023-05-10T15:57:37;6.32;;;3.80;;
12798;SDS011;19250;42.646;26.980;2023-05-10T16:00:05;4.57;;;3.23;;
12798;SDS011;19250;42.646;26.980;2023-05-10T16:02:36;7.55;;;5.47;;
12798;SDS011;19250;42.646;26.980;2023-05-10T16:05:03;6.93;;;5.87;;
12798;SDS011;19250;42.646;26.980;2023-05-10T16:07:31;5.07;;;4.40;;
12798;SDS011;19250;42.646;26.980;2023-05-10T16:09:58;7.90;;;3.65;;
12798;SDS011;19250;42.646;26.980;2023-05-10T16:12:28;5.40;;;3.80;;
12798;SDS011;19250;42.646;26.980;2023-05-10T16:14:56;4.63;;;3.38;;
12798;SDS011;19250;42.646;26.980;2023-05-10T16:17:23;3.93;;;3.40;;
12798;SDS011;19250;42.646;26.980;2023-05-10T16:19:52;5.30;;;4.03;;
12798;SDS011;19250;42.646;26.980;2023-05-10T16:22:19;4.67;;;4.20;;
12798;SDS011;19250;42.646;26.980;2023-05-10T16:24:46;6.60;;;4.82;;
12798;SDS011;19250;42.646;26.980;2023-05-10T16:27:14;10.50;;;6.05;;
12798;SDS011;19250;42.646;26.980;2023-05-10T16:29:41;7.10;;;5.38;;
12798;SDS011;19250;42.646;26.980;2023-05-10T16:32:08;6.93;;;4.80;;
12798;SDS011;19250;42.646;26.980;2023-05-10T16:34:36;8.68;;;5.40;;
12798;SDS011;19250;42.646;26.980;2023-05-10T16:37:04;5.05;;;3.72;;
12798;SDS011;19250;42.646;26.980;2023-05-10T16:39:32;8.10;;;5.55;;
12798;SDS011;19250;42.646;26.980;2023-05-10T16:41:59;9.55;;;6.35;;
12798;SDS011;19250;42.646;26.980;2023-05-10T16:44:26;9.05;;;6.20;;
12798;SDS011;19250;42.646;26.980;2023-05-10T16:46:54;6.57;;;5.90;;
12798;SDS011;19250;42.646;26.980;2023-05-10T16:49:22;10.13;;;7.43;;
12798;SDS011;19250;42.646;26.980;2023-05-10T16:51:49;9.35;;;6.00;;
12798;SDS011;19250;42.646;26.980;2023-05-10T16:54:18;9.15;;;5.78;;
12798;SDS011;19250;42.646;26.980;2023-05-10T16:56:47;10.00;;;6.63;;
12798;SDS011;19250;42.646;26.980;2023-05-10T16:59:14;9.20;;;6.85;;
12798;SDS011;19250;42.646;26.980;2023-05-10T17:01:41;10.45;;;6.70;;
12798;SDS011;19250;42.646;26.980;2023-05-10T17:04:09;9.98;;;7.93;;
12798;SDS011;19250;42.646;26.980;2023-05-10T17:06:36;8.63;;;6.38;;
12798;SDS011;19250;42.646;26.980;2023-05-10T17:09:03;8.73;;;5.90;;
12798;SDS011;19250;42.646;26.980;2023-05-10T17:11:33;9.73;;;7.20;;
12798;SDS011;19250;42.646;26.980;2023-05-10T17:14:00;7.95;;;6.55;;
12798;SDS011;19250;42.646;26.980;2023-05-10T17:16:28;8.32;;;7.00;;
12798;SDS011;19250;42.646;26.980;2023-05-10T17:18:55;9.80;;;6.70;;
12798;SDS011;19250;42.646;26.980;2023-05-10T17:21:22;9.27;;;6.95;;
12798;SDS011;19250;42.646;26.980;2023-05-10T17:23:51;8.82;;;7.32;;
12798;SDS011;19250;42.646;26.980;2023-05-10T17:26:18;8.07;;;7.28;;
12798;SDS011;19250;42.646;26.980;2023-05-10T17:28:48;8.73;;;7.65;;
12798;SDS011;19250;42.646;26.980;2023-05-10T17:31:15;8.85;;;6.30;;
12798;SDS011;19250;42.646;26.980;2023-05-10T17:33:42;8.68;;;7.60;;
12798;SDS011;19250;42.646;26.980;2023-05-10T17:36:09;9.07;;;6.88;;
12798;SDS011;19250;42.646;26.980;2023-05-10T17:38:37;7.72;;;6.50;;
12798;SDS011;19250;42.646;26.980;2023-05-10T17:41:04;8.47;;;7.10;;
12798;SDS011;19250;42.646;26.980;2023-05-10T17:43:31;8.82;;;6.13;;
12798;SDS011;19250;42.646;26.980;2023-05-10T17:46:00;10.30;;;7.40;;
12798;SDS011;19250;42.646;26.980;2023-05-10T17:48:27;7.68;;;6.88;;
12798;SDS011;19250;42.646;26.980;2023-05-10T17:50:55;10.70;;;6.90;;
12798;SDS011;19250;42.646;26.980;2023-05-10T17:53:22;7.40;;;6.40;;
12798;SDS011;19250;42.646;26.980;2023-05-10T17:55:50;7.72;;;6.72;;
12798;SDS011;19250;42.646;26.980;2023-05-10T17:58:18;10.20;;;6.30;;
12798;SDS011;19250;42.646;26.980;2023-05-10T18:00:45;8.27;;;6.57;;
12798;SDS011;19250;42.646;26.980;2023-05-10T18:03:13;10.63;;;7.30;;
12798;SDS011;19250;42.646;26.980;2023-05-10T18:05:41;9.52;;;6.53;;
12798;SDS011;19250;42.646;26.980;2023-05-10T18:08:08;10.45;;;6.28;;
12798;SDS011;19250;42.646;26.980;2023-05-10T18:10:35;10.23;;;5.55;;
12798;SDS011;19250;42.646;26.980;2023-05-10T18:13:03;9.60;;;6.22;;
12798;SDS011;19250;42.646;26.980;2023-05-10T18:15:32;8.38;;;6.05;;
12798;SDS011;19250;42.646;26.980;2023-05-10T18:18:00;11.35;;;6.00;;
12798;SDS011;19250;42.646;26.980;2023-05-10T18:20:30;11.00;;;7.35;;
12798;SDS011;19250;42.646;26.980;2023-05-10T18:22:58;7.90;;;6.28;;
12798;SDS011;19250;42.646;26.980;2023-05-10T18:25:25;9.23;;;6.27;;
12798;SDS011;19250;42.646;26.980;2023-05-10T18:27:52;6.90;;;5.63;;
12798;SDS011;19250;42.646;26.980;2023-05-10T18:30:20;7.88;;;5.90;;
12798;SDS011;19250;42.646;26.980;2023-05-10T18:32:48;7.00;;;5.70;;
12798;SDS011;19250;42.646;26.980;2023-05-10T18:35:15;10.25;;;6.40;;
12798;SDS011;19250;42.646;26.980;2023-05-10T18:37:44;6.78;;;6.05;;
12798;SDS011;19250;42.646;26.980;2023-05-10T18:40:13;8.80;;;5.90;;
12798;SDS011;19250;42.646;26.980;2023-05-10T18:42:41;10.25;;;6.68;;
12798;SDS011;19250;42.646;26.980;2023-05-10T18:45:11;12.48;;;6.57;;
12798;SDS011;19250;42.646;26.980;2023-05-10T18:47:39;8.52;;;7.20;;
12798;SDS011;19250;42.646;26.980;2023-05-10T18:50:07;10.18;;;7.85;;
12798;SDS011;19250;42.646;26.980;2023-05-10T18:52:34;10.90;;;7.40;;
12798;SDS011;19250;42.646;26.980;2023-05-10T18:55:04;10.45;;;6.88;;
12798;SDS011;19250;42.646;26.980;2023-05-10T18:57:32;9.53;;;6.60;;
12798;SDS011;19250;42.646;26.980;2023-05-10T19:00:05;8.35;;;7.00;;
12798;SDS011;19250;42.646;26.980;2023-05-10T19:02:34;11.60;;;6.83;;
12798;SDS011;19250;42.646;26.980;2023-05-10T19:05:01;10.60;;;7.57;;
12798;SDS011;19250;42.646;26.980;2023-05-10T19:07:29;9.60;;;7.85;;
12798;SDS011;19250;42.646;26.980;2023-05-10T19:09:56;9.57;;;7.50;;
12798;SDS011;19250;42.646;26.980;2023-05-10T19:12:26;10.20;;;7.10;;
12798;SDS011;19250;42.646;26.980;2023-05-10T19:14:53;10.10;;;6.93;;
12798;SDS011;19250;42.646;26.980;2023-05-10T19:17:20;7.63;;;6.55;;